sensor_id;sensor_type;location;lat;lon;timestamp;P1;durP1;ratioP1;P2;durP2;ratioP2
31906;SDS011;18455;50.858;13.662;2023-10-13T00:02:27;8.73;;;5.68;;
31906;SDS011;18455;50.858;13.662;2023-10-13T00:07:28;12.27;;;5.82;;
31906;SDS011;18455;50.858;13.662;2023-10-13T00:12:28;10.63;;;5.10;;
31906;SDS011;18455;50.858;13.662;2023-10-13T00:17:31;8.30;;;5.22;;
31906;SDS011;18455;50.858;13.662;2023-10-13T00:22:32;9.93;;;4.93;;
31906;SDS011;18455;50.858;13.662;2023-10-13T00:27:34;9.70;;;5.53;;
31906;SDS011;18455;50.858;13.662;2023-10-13T00:32:36;9.70;;;5.32;;
31906;SDS011;18455;50.858;13.662;2023-10-13T00:37:39;11.35;;;5.55;;
31906;SDS011;18455;50.858;13.662;2023-10-13T00:42:44;6.68;;;4.80;;
31906;SDS011;18455;50.858;13.662;2023-10-13T00:47:51;9.38;;;5.25;;
31906;SDS011;18455;50.858;13.662;2023-10-13T00:52:56;9.48;;;5.18;;
31906;SDS011;18455;50.858;13.662;2023-10-13T00:57:57;6.55;;;4.93;;
31906;SDS011;18455;50.858;13.662;2023-10-13T01:03:03;8.30;;;4.95;;
31906;SDS011;18455;50.858;13.662;2023-10-13T01:08:07;7.35;;;4.55;;
31906;SDS011;18455;50.858;13.662;2023-10-13T01:13:12;7.45;;;4.30;;
31906;SDS011;18455;50.858;13.662;2023-10-13T01:18:12;7.80;;;3.97;;
31906;SDS011;18455;50.858;13.662;2023-10-13T01:23:14;7.53;;;4.50;;
31906;SDS011;18455;50.858;13.662;2023-10-13T01:28:25;6.53;;;4.68;;
31906;SDS011;18455;50.858;13.662;2023-10-13T01:33:25;7.68;;;4.57;;
31906;SDS011;18455;50.858;13.662;2023-10-13T01:38:29;8.65;;;5.13;;
31906;SDS011;18455;50.858;13.662;2023-10-13T01:43:33;6.65;;;4.90;;
31906;SDS011;18455;50.858;13.662;2023-10-13T01:48:35;9.98;;;5.05;;
31906;SDS011;18455;50.858;13.662;2023-10-13T01:53:40;7.93;;;4.55;;
31906;SDS011;18455;50.858;13.662;2023-10-13T01:58:43;8.80;;;4.65;;
31906;SDS011;18455;50.858;13.662;2023-10-13T02:03:48;5.43;;;3.95;;
31906;SDS011;18455;50.858;13.662;2023-10-13T02:08:49;5.95;;;4.13;;
31906;SDS011;18455;50.858;13.662;2023-10-13T02:13:52;7.95;;;4.05;;
31906;SDS011;18455;50.858;13.662;2023-10-13T02:18:54;8.65;;;4.05;;
31906;SDS011;18455;50.858;13.662;2023-10-13T02:23:55;6.78;;;4.28;;
31906;SDS011;18455;50.858;13.662;2023-10-13T02:29:04;7.80;;;4.15;;
31906;SDS011;18455;50.858;13.662;2023-10-13T02:34:07;6.03;;;4.03;;
31906;SDS011;18455;50.858;13.662;2023-10-13T02:39:08;6.32;;;4.00;;
31906;SDS011;18455;50.858;13.662;2023-10-13T02:44:08;6.32;;;3.78;;
31906;SDS011;18455;50.858;13.662;2023-10-13T02:49:11;7.97;;;4.18;;
31906;SDS011;18455;50.858;13.662;2023-10-13T02:54:13;9.68;;;4.30;;
31906;SDS011;18455;50.858;13.662;2023-10-13T02:59:18;5.10;;;3.83;;
31906;SDS011;18455;50.858;13.662;2023-10-13T03:04:34;10.40;;;4.40;;
31906;SDS011;18455;50.858;13.662;2023-10-13T03:09:35;6.20;;;3.63;;
31906;SDS011;18455;50.858;13.662;2023-10-13T03:14:37;5.70;;;4.00;;
31906;SDS011;18455;50.858;13.662;2023-10-13T03:19:38;4.50;;;3.88;;
31906;SDS011;18455;50.858;13.662;2023-10-13T03:24:38;6.88;;;4.50;;
31906;SDS011;18455;50.858;13.662;2023-10-13T03:29:45;7.55;;;4.40;;
31906;SDS011;18455;50.858;13.662;2023-10-13T03:34:54;5.55;;;4.10;;
31906;SDS011;18455;50.858;13.662;2023-10-13T03:40:03;9.30;;;4.22;;
31906;SDS011;18455;50.858;13.662;2023-10-13T03:45:27;5.15;;;4.10;;
31906;SDS011;18455;50.858;13.662;2023-10-13T03:50:29;6.65;;;3.90;;
31906;SDS011;18455;50.858;13.662;2023-10-13T03:55:30;5.65;;;3.65;;
31906;SDS011;18455;50.858;13.662;2023-10-13T04:00:30;5.53;;;3.80;;
31906;SDS011;18455;50.858;13.662;2023-10-13T04:05:34;7.07;;;4.80;;
31906;SDS011;18455;50.858;13.662;2023-10-13T04:10:47;5.53;;;3.42;;
31906;SDS011;18455;50.858;13.662;2023-10-13T04:15:53;8.82;;;4.00;;
31906;SDS011;18455;50.858;13.662;2023-10-13T04:21:22;7.15;;;4.60;;
31906;SDS011;18455;50.858;13.662;2023-10-13T04:26:41;8.27;;;4.70;;
31906;SDS011;18455;50.858;13.662;2023-10-13T04:32:01;5.43;;;4.80;;
31906;SDS011;18455;50.858;13.662;2023-10-13T04:37:02;5.22;;;4.32;;
31906;SDS011;18455;50.858;13.662;2023-10-13T04:42:32;5.75;;;4.07;;
31906;SDS011;18455;50.858;13.662;2023-10-13T04:47:53;4.13;;;3.60;;
31906;SDS011;18455;50.858;13.662;2023-10-13T04:53:14;7.38;;;4.32;;
31906;SDS011;18455;50.858;13.662;2023-10-13T04:58:34;8.88;;;4.60;;
31906;SDS011;18455;50.858;13.662;2023-10-13T05:04:06;8.23;;;4.32;;
31906;SDS011;18455;50.858;13.662;2023-10-13T05:09:30;4.68;;;4.20;;
31906;SDS011;18455;50.858;13.662;2023-10-13T05:14:49;9.00;;;4.25;;
31906;SDS011;18455;50.858;13.662;2023-10-13T05:20:08;5.97;;;3.90;;
31906;SDS011;18455;50.858;13.662;2023-10-13T05:25:27;6.28;;;3.70;;
31906;SDS011;18455;50.858;13.662;2023-10-13T05:30:46;4.82;;;3.80;;
31906;SDS011;18455;50.858;13.662;2023-10-13T05:36:09;4.93;;;3.92;;
31906;SDS011;18455;50.858;13.662;2023-10-13T05:41:29;6.45;;;3.67;;
31906;SDS011;18455;50.858;13.662;2023-10-13T05:46:48;5.40;;;3.42;;
31906;SDS011;18455;50.858;13.662;2023-10-13T05:52:07;5.45;;;3.50;;
31906;SDS011;18455;50.858;13.662;2023-10-13T05:57:18;6.20;;;2.90;;
31906;SDS011;18455;50.858;13.662;2023-10-13T06:02:37;7.22;;;2.60;;
31906;SDS011;18455;50.858;13.662;2023-10-13T06:07:56;4.60;;;2.60;;
31906;SDS011;18455;50.858;13.662;2023-10-13T06:13:15;5.53;;;3.00;;
31906;SDS011;18455;50.858;13.662;2023-10-13T06:18:34;4.05;;;2.90;;
31906;SDS011;18455;50.858;13.662;2023-10-13T06:23:53;3.03;;;2.72;;
31906;SDS011;18455;50.858;13.662;2023-10-13T06:29:11;3.65;;;2.47;;
31906;SDS011;18455;50.858;13.662;2023-10-13T06:34:19;2.40;;;2.20;;
31906;SDS011;18455;50.858;13.662;2023-10-13T06:39:21;4.50;;;2.75;;
31906;SDS011;18455;50.858;13.662;2023-10-13T06:44:37;3.10;;;2.40;;
31906;SDS011;18455;50.858;13.662;2023-10-13T06:49:40;3.83;;;1.83;;
31906;SDS011;18455;50.858;13.662;2023-10-13T06:54:43;2.33;;;1.90;;
31906;SDS011;18455;50.858;13.662;2023-10-13T06:59:44;2.05;;;1.77;;
31906;SDS011;18455;50.858;13.662;2023-10-13T07:04:44;2.28;;;1.80;;
31906;SDS011;18455;50.858;13.662;2023-10-13T07:09:44;4.40;;;2.08;;
31906;SDS011;18455;50.858;13.662;2023-10-13T07:14:58;3.00;;;1.80;;
31906;SDS011;18455;50.858;13.662;2023-10-13T07:20:27;2.88;;;1.95;;
31906;SDS011;18455;50.858;13.662;2023-10-13T07:25:28;3.72;;;2.08;;
31906;SDS011;18455;50.858;13.662;2023-10-13T07:30:38;3.60;;;1.90;;
31906;SDS011;18455;50.858;13.662;2023-10-13T07:35:59;6.13;;;2.15;;
31906;SDS011;18455;50.858;13.662;2023-10-13T07:41:22;4.85;;;2.15;;
31906;SDS011;18455;50.858;13.662;2023-10-13T07:46:30;2.80;;;2.05;;
31906;SDS011;18455;50.858;13.662;2023-10-13T07:51:34;3.40;;;1.90;;
31906;SDS011;18455;50.858;13.662;2023-10-13T07:56:44;4.22;;;1.98;;
31906;SDS011;18455;50.858;13.662;2023-10-13T08:01:45;3.10;;;1.90;;
31906;SDS011;18455;50.858;13.662;2023-10-13T08:06:45;3.10;;;1.80;;
31906;SDS011;18455;50.858;13.662;2023-10-13T08:11:46;3.63;;;2.00;;
31906;SDS011;18455;50.858;13.662;2023-10-13T08:16:47;3.25;;;2.13;;
31906;SDS011;18455;50.858;13.662;2023-10-13T08:21:54;4.90;;;1.90;;
31906;SDS011;18455;50.858;13.662;2023-10-13T08:27:15;2.30;;;2.10;;
31906;SDS011;18455;50.858;13.662;2023-10-13T08:32:35;6.40;;;2.15;;
31906;SDS011;18455;50.858;13.662;2023-10-13T08:38:05;4.95;;;2.17;;
31906;SDS011;18455;50.858;13.662;2023-10-13T08:43:14;4.97;;;1.80;;
31906;SDS011;18455;50.858;13.662;2023-10-13T08:48:16;4.97;;;2.20;;
31906;SDS011;18455;50.858;13.662;2023-10-13T08:53:22;3.38;;;1.80;;
31906;SDS011;18455;50.858;13.662;2023-10-13T08:58:30;3.95;;;2.25;;
31906;SDS011;18455;50.858;13.662;2023-10-13T09:03:49;3.63;;;2.15;;
31906;SDS011;18455;50.858;13.662;2023-10-13T09:08:53;5.88;;;2.55;;
31906;SDS011;18455;50.858;13.662;2023-10-13T09:14:12;5.70;;;2.50;;
31906;SDS011;18455;50.858;13.662;2023-10-13T09:19:32;6.38;;;2.90;;
31906;SDS011;18455;50.858;13.662;2023-10-13T09:24:44;3.97;;;2.38;;
31906;SDS011;18455;50.858;13.662;2023-10-13T09:29:54;5.03;;;2.88;;
31906;SDS011;18455;50.858;13.662;2023-10-13T09:34:59;6.90;;;2.78;;
31906;SDS011;18455;50.858;13.662;2023-10-13T09:40:01;6.90;;;3.33;;
31906;SDS011;18455;50.858;13.662;2023-10-13T09:45:07;4.10;;;3.60;;
31906;SDS011;18455;50.858;13.662;2023-10-13T09:50:12;13.23;;;3.90;;
31906;SDS011;18455;50.858;13.662;2023-10-13T09:55:30;7.45;;;4.80;;
31906;SDS011;18455;50.858;13.662;2023-10-13T10:00:35;8.65;;;4.07;;
31906;SDS011;18455;50.858;13.662;2023-10-13T10:05:41;8.80;;;4.25;;
31906;SDS011;18455;50.858;13.662;2023-10-13T10:10:51;8.27;;;5.10;;
31906;SDS011;18455;50.858;13.662;2023-10-13T10:15:57;10.10;;;4.63;;
31906;SDS011;18455;50.858;13.662;2023-10-13T10:21:03;8.52;;;4.80;;
31906;SDS011;18455;50.858;13.662;2023-10-13T10:26:11;14.75;;;3.58;;
31906;SDS011;18455;50.858;13.662;2023-10-13T10:31:15;9.55;;;3.85;;
31906;SDS011;18455;50.858;13.662;2023-10-13T10:36:28;11.32;;;4.00;;
31906;SDS011;18455;50.858;13.662;2023-10-13T10:41:30;10.00;;;4.15;;
31906;SDS011;18455;50.858;13.662;2023-10-13T10:46:44;10.30;;;3.42;;
31906;SDS011;18455;50.858;13.662;2023-10-13T10:52:01;9.68;;;4.10;;
31906;SDS011;18455;50.858;13.662;2023-10-13T10:57:04;11.07;;;4.10;;
31906;SDS011;18455;50.858;13.662;2023-10-13T11:02:17;9.90;;;4.47;;
31906;SDS011;18455;50.858;13.662;2023-10-13T11:07:27;12.57;;;3.97;;
31906;SDS011;18455;50.858;13.662;2023-10-13T11:12:28;12.50;;;4.60;;
31906;SDS011;18455;50.858;13.662;2023-10-13T11:17:29;17.00;;;4.35;;
31906;SDS011;18455;50.858;13.662;2023-10-13T11:22:48;15.48;;;4.40;;
31906;SDS011;18455;50.858;13.662;2023-10-13T11:27:50;11.15;;;4.45;;
31906;SDS011;18455;50.858;13.662;2023-10-13T11:32:57;16.25;;;4.88;;
31906;SDS011;18455;50.858;13.662;2023-10-13T11:37:59;12.88;;;3.95;;
31906;SDS011;18455;50.858;13.662;2023-10-13T11:43:14;16.33;;;5.22;;
31906;SDS011;18455;50.858;13.662;2023-10-13T11:48:15;11.40;;;4.05;;
31906;SDS011;18455;50.858;13.662;2023-10-13T11:53:16;11.88;;;3.92;;
31906;SDS011;18455;50.858;13.662;2023-10-13T11:58:16;11.98;;;4.13;;
31906;SDS011;18455;50.858;13.662;2023-10-13T12:03:17;11.63;;;4.03;;
31906;SDS011;18455;50.858;13.662;2023-10-13T12:08:36;9.20;;;3.80;;
31906;SDS011;18455;50.858;13.662;2023-10-13T12:13:49;11.25;;;4.22;;
31906;SDS011;18455;50.858;13.662;2023-10-13T12:18:49;13.98;;;3.80;;
31906;SDS011;18455;50.858;13.662;2023-10-13T12:23:53;12.40;;;4.55;;
31906;SDS011;18455;50.858;13.662;2023-10-13T12:28:54;12.77;;;4.65;;
31906;SDS011;18455;50.858;13.662;2023-10-13T12:34:05;9.85;;;4.72;;
31906;SDS011;18455;50.858;13.662;2023-10-13T12:39:17;11.15;;;3.95;;
31906;SDS011;18455;50.858;13.662;2023-10-13T12:44:38;10.05;;;3.97;;
31906;SDS011;18455;50.858;13.662;2023-10-13T12:49:58;8.65;;;3.53;;
31906;SDS011;18455;50.858;13.662;2023-10-13T12:55:05;11.43;;;4.00;;
31906;SDS011;18455;50.858;13.662;2023-10-13T13:00:05;9.32;;;3.90;;
31906;SDS011;18455;50.858;13.662;2023-10-13T13:05:16;11.43;;;4.15;;
31906;SDS011;18455;50.858;13.662;2023-10-13T13:10:21;7.85;;;4.30;;
31906;SDS011;18455;50.858;13.662;2023-10-13T13:15:35;8.35;;;3.63;;
31906;SDS011;18455;50.858;13.662;2023-10-13T13:20:35;11.52;;;3.90;;
31906;SDS011;18455;50.858;13.662;2023-10-13T13:25:39;11.75;;;3.83;;
31906;SDS011;18455;50.858;13.662;2023-10-13T13:30:42;12.45;;;4.18;;
31906;SDS011;18455;50.858;13.662;2023-10-13T13:35:43;12.13;;;4.28;;
31906;SDS011;18455;50.858;13.662;2023-10-13T13:40:43;13.93;;;4.68;;
31906;SDS011;18455;50.858;13.662;2023-10-13T13:45:49;7.53;;;4.10;;
31906;SDS011;18455;50.858;13.662;2023-10-13T13:50:49;9.60;;;4.40;;
31906;SDS011;18455;50.858;13.662;2023-10-13T13:55:55;12.13;;;4.47;;
31906;SDS011;18455;50.858;13.662;2023-10-13T14:01:01;13.68;;;4.85;;
31906;SDS011;18455;50.858;13.662;2023-10-13T14:06:12;12.68;;;4.13;;
31906;SDS011;18455;50.858;13.662;2023-10-13T14:11:31;13.32;;;4.55;;
31906;SDS011;18455;50.858;13.662;2023-10-13T14:16:38;11.75;;;4.22;;
31906;SDS011;18455;50.858;13.662;2023-10-13T14:21:47;10.50;;;3.85;;
31906;SDS011;18455;50.858;13.662;2023-10-13T14:26:56;11.82;;;4.00;;
31906;SDS011;18455;50.858;13.662;2023-10-13T14:32:08;8.93;;;3.75;;
31906;SDS011;18455;50.858;13.662;2023-10-13T14:37:15;12.90;;;4.57;;
31906;SDS011;18455;50.858;13.662;2023-10-13T14:42:26;14.80;;;4.80;;
31906;SDS011;18455;50.858;13.662;2023-10-13T14:47:27;10.63;;;4.18;;
31906;SDS011;18455;50.858;13.662;2023-10-13T14:52:27;9.80;;;4.32;;
31906;SDS011;18455;50.858;13.662;2023-10-13T14:57:31;14.38;;;4.68;;
31906;SDS011;18455;50.858;13.662;2023-10-13T15:02:32;12.85;;;4.03;;
31906;SDS011;18455;50.858;13.662;2023-10-13T15:07:33;7.53;;;3.92;;
31906;SDS011;18455;50.858;13.662;2023-10-13T15:12:33;13.95;;;4.75;;
31906;SDS011;18455;50.858;13.662;2023-10-13T15:17:33;8.25;;;4.07;;
31906;SDS011;18455;50.858;13.662;2023-10-13T15:22:38;12.68;;;4.35;;
31906;SDS011;18455;50.858;13.662;2023-10-13T15:27:38;12.20;;;3.72;;
31906;SDS011;18455;50.858;13.662;2023-10-13T15:32:41;12.88;;;4.38;;
31906;SDS011;18455;50.858;13.662;2023-10-13T15:37:41;15.80;;;4.22;;
31906;SDS011;18455;50.858;13.662;2023-10-13T15:42:47;10.38;;;4.22;;
31906;SDS011;18455;50.858;13.662;2023-10-13T15:47:47;8.93;;;4.05;;
31906;SDS011;18455;50.858;13.662;2023-10-13T15:52:47;8.40;;;4.47;;
31906;SDS011;18455;50.858;13.662;2023-10-13T15:57:48;12.23;;;4.50;;
31906;SDS011;18455;50.858;13.662;2023-10-13T16:02:53;8.55;;;4.25;;
31906;SDS011;18455;50.858;13.662;2023-10-13T16:07:56;15.73;;;4.05;;
31906;SDS011;18455;50.858;13.662;2023-10-13T16:12:57;8.35;;;3.75;;
31906;SDS011;18455;50.858;13.662;2023-10-13T16:18:00;12.43;;;4.05;;
31906;SDS011;18455;50.858;13.662;2023-10-13T16:23:02;15.13;;;5.05;;
31906;SDS011;18455;50.858;13.662;2023-10-13T16:28:03;10.43;;;4.05;;
31906;SDS011;18455;50.858;13.662;2023-10-13T16:33:03;10.82;;;4.00;;
31906;SDS011;18455;50.858;13.662;2023-10-13T16:38:05;13.10;;;4.07;;
31906;SDS011;18455;50.858;13.662;2023-10-13T16:43:08;7.45;;;4.40;;
31906;SDS011;18455;50.858;13.662;2023-10-13T16:48:08;11.93;;;4.15;;
31906;SDS011;18455;50.858;13.662;2023-10-13T16:53:12;9.18;;;4.47;;
31906;SDS011;18455;50.858;13.662;2023-10-13T16:58:12;20.80;;;5.80;;
31906;SDS011;18455;50.858;13.662;2023-10-13T17:03:13;11.98;;;4.28;;
31906;SDS011;18455;50.858;13.662;2023-10-13T17:08:13;13.00;;;4.20;;
31906;SDS011;18455;50.858;13.662;2023-10-13T17:13:13;14.50;;;5.38;;
31906;SDS011;18455;50.858;13.662;2023-10-13T17:18:14;10.13;;;4.63;;
31906;SDS011;18455;50.858;13.662;2023-10-13T17:23:16;10.23;;;4.38;;
31906;SDS011;18455;50.858;13.662;2023-10-13T17:28:16;12.07;;;4.68;;
31906;SDS011;18455;50.858;13.662;2023-10-13T17:33:17;9.63;;;4.30;;
31906;SDS011;18455;50.858;13.662;2023-10-13T17:38:17;8.73;;;4.15;;
31906;SDS011;18455;50.858;13.662;2023-10-13T17:43:18;11.52;;;4.15;;
31906;SDS011;18455;50.858;13.662;2023-10-13T17:48:18;14.32;;;4.43;;
31906;SDS011;18455;50.858;13.662;2023-10-13T17:53:18;7.35;;;4.25;;
31906;SDS011;18455;50.858;13.662;2023-10-13T17:58:19;13.10;;;4.68;;
31906;SDS011;18455;50.858;13.662;2023-10-13T18:03:21;8.85;;;3.92;;
31906;SDS011;18455;50.858;13.662;2023-10-13T18:08:22;12.45;;;4.40;;
31906;SDS011;18455;50.858;13.662;2023-10-13T18:13:22;8.43;;;4.53;;
31906;SDS011;18455;50.858;13.662;2023-10-13T18:18:23;7.57;;;4.00;;
31906;SDS011;18455;50.858;13.662;2023-10-13T18:23:23;8.77;;;4.18;;
31906;SDS011;18455;50.858;13.662;2023-10-13T18:28:23;9.68;;;4.00;;
31906;SDS011;18455;50.858;13.662;2023-10-13T18:33:24;8.77;;;3.77;;
31906;SDS011;18455;50.858;13.662;2023-10-13T18:38:24;10.23;;;4.47;;
31906;SDS011;18455;50.858;13.662;2023-10-13T18:43:30;9.30;;;4.25;;
31906;SDS011;18455;50.858;13.662;2023-10-13T18:48:30;9.40;;;4.07;;
31906;SDS011;18455;50.858;13.662;2023-10-13T18:53:30;10.30;;;3.80;;
31906;SDS011;18455;50.858;13.662;2023-10-13T18:58:31;8.48;;;3.67;;
31906;SDS011;18455;50.858;13.662;2023-10-13T19:03:33;9.00;;;3.90;;
31906;SDS011;18455;50.858;13.662;2023-10-13T19:08:34;14.97;;;4.60;;
31906;SDS011;18455;50.858;13.662;2023-10-13T19:13:35;10.90;;;3.67;;
31906;SDS011;18455;50.858;13.662;2023-10-13T19:18:39;8.73;;;3.58;;
31906;SDS011;18455;50.858;13.662;2023-10-13T19:23:40;8.75;;;3.65;;
31906;SDS011;18455;50.858;13.662;2023-10-13T19:28:41;12.15;;;4.20;;
31906;SDS011;18455;50.858;13.662;2023-10-13T19:33:45;7.07;;;4.07;;
31906;SDS011;18455;50.858;13.662;2023-10-13T19:38:46;9.00;;;3.38;;
31906;SDS011;18455;50.858;13.662;2023-10-13T19:43:48;8.43;;;3.47;;
31906;SDS011;18455;50.858;13.662;2023-10-13T19:48:50;11.95;;;4.13;;
31906;SDS011;18455;50.858;13.662;2023-10-13T19:53:50;11.30;;;3.45;;
31906;SDS011;18455;50.858;13.662;2023-10-13T19:58:51;11.57;;;4.10;;
31906;SDS011;18455;50.858;13.662;2023-10-13T20:03:52;10.48;;;3.50;;
31906;SDS011;18455;50.858;13.662;2023-10-13T20:08:57;11.68;;;3.70;;
31906;SDS011;18455;50.858;13.662;2023-10-13T20:13:58;11.77;;;2.80;;
31906;SDS011;18455;50.858;13.662;2023-10-13T20:18:58;9.07;;;3.25;;
31906;SDS011;18455;50.858;13.662;2023-10-13T20:23:59;15.57;;;3.58;;
31906;SDS011;18455;50.858;13.662;2023-10-13T20:29:00;8.20;;;3.28;;
31906;SDS011;18455;50.858;13.662;2023-10-13T20:34:04;8.18;;;3.42;;
31906;SDS011;18455;50.858;13.662;2023-10-13T20:39:04;6.63;;;2.90;;
31906;SDS011;18455;50.858;13.662;2023-10-13T20:44:05;10.98;;;2.85;;
31906;SDS011;18455;50.858;13.662;2023-10-13T20:49:05;10.48;;;3.92;;
31906;SDS011;18455;50.858;13.662;2023-10-13T20:54:06;9.18;;;3.05;;
31906;SDS011;18455;50.858;13.662;2023-10-13T20:59:10;16.83;;;3.78;;
31906;SDS011;18455;50.858;13.662;2023-10-13T21:04:14;10.88;;;2.75;;
31906;SDS011;18455;50.858;13.662;2023-10-13T21:09:14;15.60;;;3.42;;
31906;SDS011;18455;50.858;13.662;2023-10-13T21:14:19;8.38;;;3.40;;
31906;SDS011;18455;50.858;13.662;2023-10-13T21:19:20;8.10;;;3.38;;
31906;SDS011;18455;50.858;13.662;2023-10-13T21:24:20;11.27;;;3.38;;
31906;SDS011;18455;50.858;13.662;2023-10-13T21:29:20;9.98;;;3.90;;
31906;SDS011;18455;50.858;13.662;2023-10-13T21:34:24;11.32;;;3.20;;
31906;SDS011;18455;50.858;13.662;2023-10-13T21:39:24;8.52;;;3.28;;
31906;SDS011;18455;50.858;13.662;2023-10-13T21:44:25;7.18;;;3.05;;
31906;SDS011;18455;50.858;13.662;2023-10-13T21:49:25;12.23;;;3.33;;
31906;SDS011;18455;50.858;13.662;2023-10-13T21:54:25;11.85;;;2.90;;
31906;SDS011;18455;50.858;13.662;2023-10-13T21:59:26;15.10;;;3.60;;
31906;SDS011;18455;50.858;13.662;2023-10-13T22:04:26;9.25;;;2.83;;
31906;SDS011;18455;50.858;13.662;2023-10-13T22:09:30;7.75;;;3.15;;
31906;SDS011;18455;50.858;13.662;2023-10-13T22:14:31;7.45;;;3.15;;
31906;SDS011;18455;50.858;13.662;2023-10-13T22:19:31;6.15;;;3.00;;
31906;SDS011;18455;50.858;13.662;2023-10-13T22:24:31;9.15;;;3.38;;
31906;SDS011;18455;50.858;13.662;2023-10-13T22:29:33;7.68;;;3.38;;
31906;SDS011;18455;50.858;13.662;2023-10-13T22:34:33;8.38;;;3.67;;
31906;SDS011;18455;50.858;13.662;2023-10-13T22:39:34;14.30;;;3.22;;
31906;SDS011;18455;50.858;13.662;2023-10-13T22:44:34;11.70;;;4.00;;
31906;SDS011;18455;50.858;13.662;2023-10-13T22:49:36;7.68;;;3.15;;
31906;SDS011;18455;50.858;13.662;2023-10-13T22:54:39;8.43;;;2.80;;
31906;SDS011;18455;50.858;13.662;2023-10-13T22:59:41;10.75;;;3.08;;
31906;SDS011;18455;50.858;13.662;2023-10-13T23:04:42;12.40;;;3.22;;
31906;SDS011;18455;50.858;13.662;2023-10-13T23:09:43;10.07;;;3.38;;
31906;SDS011;18455;50.858;13.662;2023-10-13T23:14:48;7.30;;;3.40;;
31906;SDS011;18455;50.858;13.662;2023-10-13T23:19:50;8.32;;;2.88;;
31906;SDS011;18455;50.858;13.662;2023-10-13T23:24:52;10.02;;;3.03;;
31906;SDS011;18455;50.858;13.662;2023-10-13T23:29:52;9.80;;;3.40;;
31906;SDS011;18455;50.858;13.662;2023-10-13T23:34:52;7.28;;;3.58;;
31906;SDS011;18455;50.858;13.662;2023-10-13T23:39:53;7.65;;;3.35;;
31906;SDS011;18455;50.858;13.662;2023-10-13T23:44:53;11.27;;;3.40;;
31906;SDS011;18455;50.858;13.662;2023-10-13T23:50:06;5.13;;;2.83;;
31906;SDS011;18455;50.858;13.662;2023-10-13T23:55:16;5.93;;;3.30;;
